Terminal Aerodrome Forecast
Issued by NWS

Home | Current Version | Previous Version | Text Only | Print | Product List | Glossary On
Versions: 1 2 3 4 5 6 7 8 9 10 11 12 13 14 15 16 17 18 19
810
FTUS43 KLSX 260520
TAFSUS
TAF
KSUS 260520Z 2606/2706 00000KT P6SM FEW250
     FM261600 27006KT P6SM SCT200
     FM261900 28006KT P6SM VCSH BKN150
     FM262300 VRB04KT P6SM SCT200=

USA.gov is the U.S. government's official web portal to all federal, state and local government web resources and services.